Terminal Aerodrome Forecast
Issued by NWS

Home | Current Version | Previous Version | Text Only | Print | Product List | Glossary On
Versions: 1 2 3 4 5 6 7 8 9 10 11 12
393
FTUS46 KHNX 081744
TAFBFL
TAF
KBFL 081744Z 0818/0918 VRB05KT 4SM HZ OVC040
     FM090200 05005KT 4SM BR VCSH OVC020=

USA.gov is the U.S. government's official web portal to all federal, state and local government web resources and services.